Time;durP1;ratioP1;P1;durP2;ratioP2;P2;SDS_P1;SDS_P2;PMS_P1;PMS_P2;Temp;Humidity;BMP_temperature;BMP_pressure;BME280_temperature;BME280_humidity;BME280_pressure;Samples;Min_cycle;Max_cycle;Signal;HPM_P1;HPM_P2
2023/01/18 00:02:23;;;;;;;163.27;94.68;;;;;;;6.78;72.35;99357.94;4860210;29;20053;-61
2023/01/18 00:05:13;;;;;;;161.88;93.18;;;;;;;7.06;72.09;99369.19;4870901;29;20041;-60
2023/01/18 00:07:56;;;;;;;167.15;95.40;;;;;;;6.90;71.66;99374.34;4872283;29;20145;-61
2023/01/18 00:10:45;;;;;;;165.13;93.65;;;;;;;6.75;72.60;99383.75;4835265;29;20148;-61
2023/01/18 00:13:27;;;;;;;152.50;91.15;;;;;;;6.73;72.13;99386.53;4847931;29;20140;-61
2023/01/18 00:16:18;;;;;;;154.75;91.53;;;;;;;6.99;72.15;99386.56;4837413;29;20204;-61
2023/01/18 00:19:05;;;;;;;152.68;91.63;;;;;;;7.04;70.30;99388.75;4855641;29;20057;-61
2023/01/18 00:22:00;;;;;;;160.00;88.93;;;;;;;7.05;70.80;99391.25;4853794;29;20071;-61
2023/01/18 00:24:35;;;;;;;147.07;84.35;;;;;;;6.95;70.86;99395.75;4851629;29;20124;-61
2023/01/18 00:27:24;;;;;;;154.50;84.72;;;;;;;7.05;70.60;99396.50;4852750;29;20556;-61
2023/01/18 00:30:06;;;;;;;143.65;79.25;;;;;;;7.13;69.47;99396.56;4855375;29;20109;-61
2023/01/18 00:32:57;;;;;;;124.05;69.40;;;;;;;7.44;67.51;99402.19;4861703;29;20052;-61
2023/01/18 00:35:40;;;;;;;113.47;59.05;;;;;;;7.65;62.79;99400.03;4871843;29;20064;-62
2023/01/18 00:38:30;;;;;;;108.75;50.45;;;;;;;7.82;60.22;99403.59;4854315;29;20152;-61
2023/01/18 00:41:12;;;;;;;99.68;46.72;;;;;;;7.97;58.51;99401.97;4853029;29;20609;-61
2023/01/18 00:44:01;;;;;;;77.90;42.13;;;;;;;8.05;56.11;99412.56;4853709;29;20060;-61
2023/01/18 00:46:43;;;;;;;91.30;42.42;;;;;;;8.32;57.56;99416.81;4853309;29;20390;-61
2023/01/18 00:49:38;;;;;;;78.93;41.03;;;;;;;8.47;55.92;99417.03;4850004;29;20068;-61
2023/01/18 00:52:27;;;;;;;72.88;40.30;;;;;;;8.54;56.48;99410.13;4862431;29;20053;-61
2023/01/18 00:55:16;;;;;;;86.82;43.30;;;;;;;8.54;56.26;99415.41;4853178;29;20065;-61
2023/01/18 00:57:58;;;;;;;74.40;43.20;;;;;;;8.65;55.59;99409.81;4862474;29;20053;-61
2023/01/18 01:00:47;;;;;;;78.97;40.13;;;;;;;8.75;55.12;99399.09;4870995;29;20192;-61
2023/01/18 01:06:42;;;;;;;83.00;41.63;;;;;;;8.78;55.26;99404.88;4856509;29;20056;-61
2023/01/18 01:06:43;;;;;;;87.93;42.80;;;;;;;8.68;56.53;99406.84;4854468;29;20761;-62
2023/01/18 01:09:29;;;;;;;91.05;44.20;;;;;;;8.59;55.90;99418.38;4871068;29;20670;-61
2023/01/18 01:27:42;;;;;;;89.82;48.55;;;;;;;8.41;57.66;99451.97;4849698;29;20072;-60
2023/01/18 01:30:31;;;;;;;95.28;51.30;;;;;;;8.29;58.47;99456.72;4867294;29;20046;-59
2023/01/18 01:33:13;;;;;;;99.65;52.45;;;;;;;8.36;58.92;99462.22;4862211;29;20059;-60
2023/01/18 01:36:10;;;;;;;92.40;48.22;;;;;;;8.21;58.96;99461.13;4856231;29;20059;-60
2023/01/18 01:38:52;;;;;;;102.20;50.47;;;;;;;8.14;59.01;99456.47;4856250;29;20065;-60
2023/01/18 01:41:41;;;;;;;105.85;50.40;;;;;;;8.10;58.98;99457.75;4838649;29;20132;-60
2023/01/18 01:44:32;;;;;;;89.78;48.45;;;;;;;8.12;59.00;99462.88;4856831;29;20054;-60
2023/01/18 01:47:33;;;;;;;99.55;49.55;;;;;;;8.00;59.82;99464.16;4861828;29;20561;-59
2023/01/18 01:50:37;;;;;;;94.60;49.45;;;;;;;8.11;59.91;99456.78;4837827;29;20061;-60
2023/01/18 01:53:26;;;;;;;102.65;50.55;;;;;;;8.07;60.35;99484.47;4837080;29;20076;-60
2023/01/18 01:56:16;;;;;;;101.32;49.35;;;;;;;8.09;60.03;99485.16;4838678;29;20050;-60
2023/01/18 01:59:00;;;;;;;91.30;49.00;;;;;;;8.05;60.26;99477.72;4859833;29;20084;-60
2023/01/18 02:01:51;;;;;;;90.43;48.40;;;;;;;8.18;60.15;99486.00;4853878;29;20050;-62
2023/01/18 02:04:34;;;;;;;90.28;49.40;;;;;;;8.06;60.29;99492.53;4855768;29;20053;-62
2023/01/18 02:07:25;;;;;;;91.57;47.22;;;;;;;7.90;60.25;99498.56;4861631;29;20049;-61
2023/01/18 02:10:15;;;;;;;96.57;46.25;;;;;;;8.02;60.08;99502.56;4855466;29;20058;-60
2023/01/18 02:12:58;;;;;;;93.28;47.70;;;;;;;8.03;60.65;99514.78;4837378;29;20072;-61
2023/01/18 02:15:58;;;;;;;95.75;48.92;;;;;;;8.16;60.55;99506.44;4837079;29;20538;-61
2023/01/18 02:19:26;;;;;;;97.75;49.50;;;;;;;8.21;60.64;99504.16;4863418;29;20076;-60
2023/01/18 02:22:46;;;;;;;111.88;48.90;;;;;;;8.05;61.73;99507.53;4852749;29;20059;-60
2023/01/18 02:25:59;;;;;;;101.38;50.65;;;;;;;8.18;61.08;99522.13;4854476;29;20153;-61
2023/01/18 02:28:50;;;;;;;105.68;47.28;;;;;;;8.44;59.12;99530.84;4860502;29;20075;-61
2023/01/18 02:31:58;;;;;;;98.22;48.35;;;;;;;8.60;59.45;99533.56;4867780;29;20443;-61
2023/01/18 02:34:43;;;;;;;103.78;49.88;;;;;;;8.58;59.07;99531.06;4839409;29;20053;-61
2023/01/18 02:37:43;;;;;;;91.68;47.75;;;;;;;8.50;58.80;99528.41;4861294;29;20052;-61
2023/01/18 02:40:57;;;;;;;97.53;48.60;;;;;;;8.63;58.73;99527.13;4854906;29;20129;-61
2023/01/18 02:47:13;;;;;;;90.45;48.42;;;;;;;8.81;58.10;99541.88;4854924;29;20121;-61
2023/01/18 02:50:03;;;;;;;105.93;50.17;;;;;;;8.54;58.24;99545.56;4853643;29;20061;-62
2023/01/18 02:52:52;;;;;;;107.25;53.60;;;;;;;8.31;59.90;99546.31;4871498;29;20049;-62
2023/01/18 02:55:52;;;;;;;112.95;54.50;;;;;;;8.12;59.45;99539.41;4861021;29;20052;-62
2023/01/18 02:58:50;;;;;;;116.30;55.75;;;;;;;8.21;59.08;99527.91;4866022;29;20167;-62
2023/01/18 03:01:51;;;;;;;110.25;55.92;;;;;;;8.39;59.76;99533.13;4861667;29;20156;-62
2023/01/18 03:04:53;;;;;;;117.90;57.90;;;;;;;8.33;59.35;99537.22;4848281;29;20153;-62
2023/01/18 03:07:50;;;;;;;117.22;58.83;;;;;;;8.39;58.33;99552.44;4856238;29;20542;-62
2023/01/18 03:10:45;;;;;;;127.40;62.00;;;;;;;8.44;58.12;99557.25;4854909;29;20097;-64
2023/01/18 03:13:43;;;;;;;117.18;62.13;;;;;;;8.54;58.55;99565.88;4845826;29;20148;-62
2023/01/18 03:16:59;;;;;;;112.72;60.58;;;;;;;8.74;57.52;99569.91;4864854;29;20056;-62
2023/01/18 03:26:19;;;;;;;123.68;64.28;;;;;;;9.32;58.96;99588.41;4835889;29;20054;-62
2023/01/18 03:35:25;;;;;;;137.55;68.53;;;;;;;11.55;51.85;99587.31;4868327;29;20496;-62
2023/01/18 03:38:22;;;;;;;144.23;71.85;;;;;;;12.02;47.69;99594.28;4867209;29;20084;-62
2023/01/18 03:41:00;;;;;;;145.48;73.30;;;;;;;12.57;47.23;99599.19;4853664;29;20117;-63
2023/01/18 03:44:00;;;;;;;150.43;76.03;;;;;;;12.99;46.21;99594.03;4867935;29;20088;-63
2023/01/18 03:46:38;;;;;;;199.55;77.63;;;;;;;13.65;43.13;99599.28;4862749;29;20060;-62
2023/01/18 03:49:33;;;;;;;148.23;75.88;;;;;;;14.28;41.58;99625.88;4861096;29;20053;-62
2023/01/18 03:52:25;;;;;;;143.25;73.45;;;;;;;14.55;42.80;99631.41;4870552;29;20052;-63
2023/01/18 03:55:22;;;;;;;139.20;71.15;;;;;;;14.09;42.43;99626.53;4858188;29;20109;-62
2023/01/18 03:58:16;;;;;;;145.50;67.22;;;;;;;14.19;42.92;99643.00;4861562;29;20514;-63
2023/01/18 04:01:05;;;;;;;136.75;67.60;;;;;;;13.97;43.24;99645.88;4860037;29;20123;-62
2023/01/18 04:03:47;;;;;;;136.43;70.68;;;;;;;14.62;41.62;99648.25;4862484;29;20057;-62
2023/01/18 04:06:38;;;;;;;130.85;69.40;;;;;;;15.09;39.79;99659.00;4861447;29;20117;-62
2023/01/18 04:09:20;;;;;;;127.47;64.85;;;;;;;14.82;41.88;99663.34;4863243;29;20064;-62
2023/01/18 04:12:09;;;;;;;124.28;66.22;;;;;;;14.65;40.86;99669.19;4860021;29;20061;-62
2023/01/18 04:15:04;;;;;;;127.80;66.82;;;;;;;14.43;41.62;99679.09;4857065;29;20045;-62
2023/01/18 04:17:39;;;;;;;145.32;69.85;;;;;;;14.44;40.88;99677.25;4853928;29;20057;-62
2023/01/18 04:20:34;;;;;;;124.10;66.25;;;;;;;13.83;42.78;99685.69;4871758;29;20136;-62
2023/01/18 04:23:10;;;;;;;138.98;65.13;;;;;;;13.85;40.88;99696.97;4871377;29;20112;-61
2023/01/18 04:25:59;;;;;;;130.32;66.00;;;;;;;14.13;41.81;99701.53;4869308;29;20060;-62
2023/01/18 04:28:41;;;;;;;128.75;68.05;;;;;;;13.97;40.96;99707.13;4863163;29;20117;-62
2023/01/18 04:31:30;;;;;;;133.65;67.50;;;;;;;14.01;39.84;99711.91;4852253;29;20562;-63
2023/01/18 04:34:21;;;;;;;137.57;71.60;;;;;;;14.06;42.45;99706.81;4864938;29;20060;-61
2023/01/18 04:37:16;;;;;;;147.43;70.40;;;;;;;13.84;40.11;99700.66;4870553;29;20057;-62
2023/01/18 04:39:51;;;;;;;134.65;68.65;;;;;;;13.83;39.98;99698.19;4868461;29;20104;-63
2023/01/18 04:42:46;;;;;;;138.13;68.85;;;;;;;13.83;42.26;99707.00;4859815;29;20116;-62
2023/01/18 04:45:22;;;;;;;131.98;68.53;;;;;;;13.64;43.34;99704.94;4838106;29;20052;-63
2023/01/18 04:48:17;;;;;;;138.25;69.78;;;;;;;13.74;43.73;99715.28;4851504;29;20057;-63
2023/01/18 04:51:00;;;;;;;146.48;70.93;;;;;;;13.93;41.63;99709.34;4848722;29;20468;-62
2023/01/18 04:53:50;;;;;;;143.30;71.18;;;;;;;13.86;41.67;99714.59;4846460;29;20121;-63
2023/01/18 04:56:32;;;;;;;147.55;75.13;;;;;;;13.97;43.30;99720.44;4844421;29;20627;-62
2023/01/18 04:59:22;;;;;;;137.00;73.75;;;;;;;14.29;42.01;99731.41;4840826;29;20084;-63
2023/01/18 05:02:04;;;;;;;141.10;71.47;;;;;;;14.59;41.15;99733.97;4847034;29;20061;-63
2023/01/18 05:04:53;;;;;;;143.52;72.68;;;;;;;14.71;40.80;99741.25;4856273;29;20830;-66
2023/01/18 05:07:35;;;;;;;137.95;71.80;;;;;;;14.97;40.68;99739.78;4842245;29;20057;-64
2023/01/18 05:10:24;;;;;;;135.20;71.25;;;;;;;15.13;39.14;99734.97;4864833;29;20375;-66
2023/01/18 05:13:06;;;;;;;129.50;70.95;;;;;;;15.06;36.68;99730.59;4860538;29;20494;-64
2023/01/18 05:15:55;;;;;;;146.00;70.45;;;;;;;14.10;38.08;99726.75;4863205;29;20045;-62
2023/01/18 05:18:37;;;;;;;142.52;75.30;;;;;;;14.67;37.99;99732.00;4868112;29;20113;-62
2023/01/18 05:21:27;;;;;;;146.73;71.63;;;;;;;14.98;38.67;99725.44;4864637;29;20077;-62
2023/01/18 05:24:09;;;;;;;157.18;77.85;;;;;;;14.98;37.27;99725.44;4863630;29;20140;-66
2023/01/18 05:26:58;;;;;;;143.80;72.22;;;;;;;15.11;39.88;99729.00;4861245;29;20085;-62
2023/01/18 05:29:40;;;;;;;130.77;70.35;;;;;;;15.45;36.50;99732.66;4853641;29;20049;-62
2023/01/18 05:32:29;;;;;;;133.27;69.25;;;;;;;15.32;35.97;99722.75;4865390;29;20058;-62
2023/01/18 05:35:11;;;;;;;144.65;72.25;;;;;;;15.49;37.37;99723.25;4858820;29;20053;-62
2023/01/18 05:38:00;;;;;;;141.38;71.25;;;;;;;15.01;37.08;99725.03;4859725;29;20060;-62
2023/01/18 05:40:44;;;;;;;148.18;73.05;;;;;;;15.13;38.15;99721.66;4861915;29;20053;-64
2023/01/18 05:43:34;;;;;;;137.48;71.80;;;;;;;15.19;35.06;99707.50;4860175;29;20052;-67
2023/01/18 05:46:16;;;;;;;144.13;70.85;;;;;;;15.31;36.49;99721.13;4858856;29;20060;-65
2023/01/18 05:49:05;;;;;;;130.50;73.22;;;;;;;15.44;38.94;99709.69;4862615;29;20045;-62
2023/01/18 05:51:54;;;;;;;152.68;73.47;;;;;;;15.41;39.68;99702.03;4861575;29;20140;-63
2023/01/18 05:54:49;;;;;;;151.63;74.03;;;;;;;15.43;37.42;99692.00;4850357;29;20064;-64
2023/01/18 05:57:25;;;;;;;149.13;76.68;;;;;;;15.14;36.77;99688.56;4867664;29;20112;-63
2023/01/18 06:00:14;;;;;;;151.85;75.13;;;;;;;15.22;35.05;99677.72;4859182;29;20073;-64
2023/01/18 06:02:59;;;;;;;134.90;68.88;;;;;;;15.01;34.66;99671.69;4862554;29;20132;-63
2023/01/18 06:05:58;;;;;;;130.93;69.75;;;;;;;15.29;37.03;99670.59;4857369;29;20735;-64
2023/01/18 06:08:34;;;;;;;151.23;74.90;;;;;;;15.29;35.17;99665.25;4853644;29;20056;-64
2023/01/18 06:11:29;;;;;;;154.93;77.30;;;;;;;15.48;38.18;99668.22;4855267;29;20113;-65
2023/01/18 06:14:18;;;;;;;143.95;72.35;;;;;;;15.33;35.84;99656.84;4863362;29;20052;-63
2023/01/18 06:17:00;;;;;;;137.90;70.72;;;;;;;15.48;35.10;99654.84;4870617;29;20492;-63
2023/01/18 06:19:49;;;;;;;135.05;70.47;;;;;;;15.62;35.45;99648.56;4859459;29;20117;-64
2023/01/18 06:22:31;;;;;;;130.32;65.10;;;;;;;15.81;36.57;99641.59;4873653;29;20056;-64
2023/01/18 06:25:26;;;;;;;126.43;63.55;;;;;;;15.64;34.78;99647.34;4855959;29;20057;-64
2023/01/18 06:28:03;;;;;;;121.18;60.38;;;;;;;15.64;33.17;99636.66;4867097;29;20059;-65
2023/01/18 06:31:03;;;;;;;115.82;58.67;;;;;;;15.57;34.33;99635.81;4863587;29;20699;-64
2023/01/18 06:33:38;;;;;;;125.93;60.73;;;;;;;15.72;35.52;99632.97;4859734;29;20048;-64
2023/01/18 06:36:33;;;;;;;130.15;65.38;;;;;;;15.66;32.53;99623.94;4873015;29;20056;-64
2023/01/18 06:39:08;;;;;;;126.78;64.47;;;;;;;15.88;34.58;99626.44;4854817;29;20053;-64
2023/01/18 06:42:03;;;;;;;103.72;56.15;;;;;;;15.84;34.05;99612.66;4872814;29;20049;-64
2023/01/18 06:44:39;;;;;;;118.25;56.38;;;;;;;15.98;33.16;99606.28;4860592;29;20121;-64
2023/01/18 06:47:34;;;;;;;119.40;58.10;;;;;;;15.60;31.99;99608.72;4857803;29;20065;-62
2023/01/18 06:50:23;;;;;;;123.18;59.88;;;;;;;15.50;32.63;99591.38;4852628;29;20142;-63
2023/01/18 06:53:12;;;;;;;122.10;60.72;;;;;;;15.78;32.64;99593.94;4857760;29;20073;-63
2023/01/18 06:56:09;;;;;;;128.82;63.60;;;;;;;15.73;32.33;99594.56;4854893;29;20255;-63
2023/01/18 06:58:54;;;;;;;132.05;61.10;;;;;;;16.14;34.97;99589.03;4869707;29;20648;-63
2023/01/18 07:01:43;;;;;;;122.63;59.95;;;;;;;16.36;34.41;99581.59;4867293;29;20156;-62
2023/01/18 07:04:25;;;;;;;132.15;59.35;;;;;;;16.43;31.92;99585.06;4864193;29;20156;-63
2023/01/18 07:07:15;;;;;;;120.72;58.65;;;;;;;16.51;34.01;99571.47;4855010;29;20065;-63
2023/01/18 07:10:04;;;;;;;118.38;61.75;;;;;;;16.58;32.89;99573.16;4855578;29;20057;-64
2023/01/18 07:12:56;;;;;;;130.68;61.65;;;;;;;16.69;32.70;99582.38;4849379;29;20141;-63
2023/01/18 07:15:39;;;;;;;123.50;61.00;;;;;;;17.05;31.98;99573.81;4835224;29;20058;-64
2023/01/18 07:18:29;;;;;;;118.93;58.80;;;;;;;17.20;29.56;99577.03;4850220;29;20060;-63
2023/01/18 07:21:12;;;;;;;165.80;61.73;;;;;;;17.11;27.72;99564.94;4861303;29;20085;-63
2023/01/18 07:24:02;;;;;;;128.73;61.97;;;;;;;17.53;29.61;99550.03;4848558;29;20045;-63
2023/01/18 07:26:44;;;;;;;105.80;54.22;;;;;;;17.77;29.25;99546.63;4853074;29;20622;-63
2023/01/18 07:29:33;;;;;;;116.10;61.35;;;;;;;17.40;29.41;99540.25;4857527;29;20064;-62
2023/01/18 07:32:15;;;;;;;113.40;55.95;;;;;;;17.14;29.14;99545.75;4842634;29;20361;-62
2023/01/18 07:35:04;;;;;;;99.85;51.20;;;;;;;17.12;31.54;99552.38;4864134;29;20056;-64
2023/01/18 07:37:51;;;;;;;93.45;47.55;;;;;;;16.90;30.25;99541.16;4869792;29;20053;-63
2023/01/18 07:40:40;;;;;;;84.63;45.20;;;;;;;16.95;32.33;99536.00;4868681;29;20187;-63
2023/01/18 07:43:23;;;;;;;91.30;46.63;;;;;;;16.96;31.97;99530.41;4860049;29;20053;-63
2023/01/18 07:46:19;;;;;;;88.05;47.47;;;;;;;17.02;31.26;99531.41;4849565;29;20053;-63
2023/01/18 07:49:04;;;;;;;89.47;48.38;;;;;;;16.91;28.54;99530.22;4860671;29;20092;-63
2023/01/18 07:51:59;;;;;;;83.55;43.90;;;;;;;17.10;31.75;99522.31;4850734;29;20332;-65
2023/01/18 07:54:48;;;;;;;68.82;40.00;;;;;;;17.35;31.40;99520.50;4819034;29;20065;-64
2023/01/18 07:57:30;;;;;;;66.90;34.75;;;;;;;17.34;28.13;99517.03;4849481;29;20478;-62
2023/01/18 08:00:26;;;;;;;70.90;34.75;;;;;;;17.49;29.50;99505.97;4852180;29;20052;-62
2023/01/18 08:03:01;;;;;;;51.90;29.67;;;;;;;17.23;25.43;99503.50;4861288;29;20105;-63
2023/01/18 08:05:50;;;;;;;64.28;32.33;;;;;;;17.29;29.56;99508.81;4852171;29;20494;-62
2023/01/18 08:08:33;;;;;;;61.60;32.80;;;;;;;17.25;29.24;99502.25;4868944;29;20510;-61
2023/01/18 08:11:22;;;;;;;57.53;33.40;;;;;;;17.20;29.40;99499.41;4851299;29;20140;-61
2023/01/18 08:14:05;;;;;;;55.78;32.45;;;;;;;17.26;31.30;99508.44;4851963;29;20656;-62
2023/01/18 08:17:00;;;;;;;65.00;33.30;;;;;;;17.12;27.86;99499.66;4861561;29;20057;-64
2023/01/18 08:19:36;;;;;;;57.85;31.95;;;;;;;17.23;28.08;99498.97;4846580;29;20057;-62
2023/01/18 08:22:25;;;;;;;64.53;35.53;;;;;;;17.23;29.10;99482.06;4864637;29;20061;-62
2023/01/18 08:25:07;;;;;;;55.85;34.35;;;;;;;17.24;29.93;99481.03;4860332;29;20045;-63
2023/01/18 08:28:04;;;;;;;57.90;34.47;;;;;;;17.29;29.06;99478.53;4832061;29;20050;-61
2023/01/18 08:30:43;;;;;;;56.05;32.47;;;;;;;17.38;29.48;99471.88;4853001;29;20152;-61
2023/01/18 08:33:36;;;;;;;52.83;32.03;;;;;;;17.37;31.56;99473.75;4835897;29;20065;-63
2023/01/18 08:36:22;;;;;;;56.90;30.58;;;;;;;17.27;30.71;99477.94;4854478;29;20077;-62
2023/01/18 08:39:12;;;;;;;42.20;20.48;;;;;;;17.30;29.16;99472.97;4871116;29;20053;-63
2023/01/18 08:41:54;;;;;;;32.60;19.52;;;;;;;17.32;27.43;99464.72;4863378;29;20049;-64
2023/01/18 08:44:43;;;;;;;34.47;20.45;;;;;;;17.44;27.31;99463.78;4843625;29;20621;-63
2023/01/18 08:47:25;;;;;;;39.40;21.52;;;;;;;17.52;27.29;99452.78;4862500;29;20144;-64
2023/01/18 08:50:20;;;;;;;50.95;22.85;;;;;;;17.49;27.35;99455.09;4866702;29;20053;-62
2023/01/18 08:53:10;;;;;;;47.88;27.00;;;;;;;17.46;26.75;99448.34;4870838;29;20060;-64
2023/01/18 08:55:59;;;;;;;59.28;29.48;;;;;;;17.47;25.92;99452.66;4852096;29;20088;-63
2023/01/18 08:58:41;;;;;;;53.65;31.65;;;;;;;17.49;25.60;99452.41;4850244;29;20066;-62
2023/01/18 09:01:30;;;;;;;68.18;32.67;;;;;;;17.85;27.70;99455.22;4853074;29;20055;-63
2023/01/18 09:04:12;;;;;;;66.10;31.77;;;;;;;17.74;28.53;99445.25;4855195;29;20409;-64
2023/01/18 09:07:01;;;;;;;55.08;30.33;;;;;;;17.42;26.51;99443.63;4852728;29;20057;-64
2023/01/18 09:09:44;;;;;;;55.13;31.65;;;;;;;17.81;28.19;99437.94;4835745;29;20045;-63
2023/01/18 09:12:33;;;;;;;56.80;32.72;;;;;;;17.96;26.95;99434.94;4853670;29;20053;-62
2023/01/18 09:15:17;;;;;;;60.63;31.02;;;;;;;18.00;27.97;99436.13;4870732;29;20143;-62
2023/01/18 09:18:07;;;;;;;55.67;29.42;;;;;;;17.86;25.99;99427.41;4851880;29;20077;-63
2023/01/18 09:20:50;;;;;;;56.15;32.03;;;;;;;17.92;29.08;99423.81;4860281;29;20545;-63
2023/01/18 09:23:39;;;;;;;62.63;31.27;;;;;;;17.82;26.90;99415.47;4860230;29;20059;-64
2023/01/18 09:26:21;;;;;;;53.28;30.27;;;;;;;17.91;26.70;99411.47;4868801;29;20064;-62
2023/01/18 09:29:10;;;;;;;47.83;28.73;;;;;;;18.00;26.90;99403.13;4850821;29;20125;-64
2023/01/18 09:31:54;;;;;;;66.15;34.20;;;;;;;17.77;28.62;99401.94;4854538;29;20058;-62
2023/01/18 09:34:45;;;;;;;66.15;33.83;;;;;;;17.93;27.34;99398.66;4853382;29;20044;-62
2023/01/18 09:37:27;;;;;;;62.42;34.45;;;;;;;17.79;27.43;99393.69;4863401;29;20086;-62
2023/01/18 09:40:28;;;;;;;74.35;34.60;;;;;;;17.69;28.04;99396.03;4873780;29;20061;-62
2023/01/18 09:43:23;;;;;;;77.00;39.60;;;;;;;17.52;28.34;99396.56;4867223;29;20534;-64
2023/01/18 09:46:27;;;;;;;66.03;35.05;;;;;;;17.70;29.06;99397.69;4854766;29;20053;-63
2023/01/18 09:49:20;;;;;;;65.82;34.05;;;;;;;17.60;28.65;99392.00;4853000;29;20121;-64
2023/01/18 09:52:38;;;;;;;52.05;30.35;;;;;;;17.49;28.60;99390.81;4852669;29;20743;-65
2023/01/18 09:55:16;;;;;;;58.08;30.27;;;;;;;17.45;26.53;99389.63;4836651;29;20434;-62
2023/01/18 09:58:38;;;;;;;60.80;29.42;;;;;;;17.45;28.44;99389.63;4850608;29;20050;-63
2023/01/18 10:01:25;;;;;;;62.60;30.83;;;;;;;17.49;29.99;99385.47;4861605;29;20227;-62
2023/01/18 10:04:24;;;;;;;73.68;34.67;;;;;;;17.38;32.07;99378.16;4867339;29;20105;-64
2023/01/18 10:07:19;;;;;;;74.40;36.30;;;;;;;17.38;30.97;99386.19;4855831;29;20494;-64
2023/01/18 10:10:22;;;;;;;66.20;36.35;;;;;;;17.46;29.59;99375.19;4836814;29;20133;-64
2023/01/18 10:13:23;;;;;;;67.10;36.63;;;;;;;17.34;31.60;99368.94;4859914;29;20473;-63
2023/01/18 10:16:20;;;;;;;86.35;41.00;;;;;;;17.33;31.02;99367.28;4854232;29;20064;-63
2023/01/18 10:19:00;;;;;;;86.32;44.92;;;;;;;17.23;32.00;99369.63;4866591;29;20053;-63
2023/01/18 10:22:08;;;;;;;93.32;46.33;;;;;;;17.26;31.25;99363.88;4856154;29;20571;-63
2023/01/18 10:25:13;;;;;;;79.72;41.88;;;;;;;17.13;31.10;99358.63;4871937;29;20144;-63
2023/01/18 10:28:57;;;;;;;78.57;40.45;;;;;;;17.02;31.67;99354.78;4854976;29;20152;-64
2023/01/18 10:31:51;;;;;;;72.60;38.22;;;;;;;17.08;33.27;99348.56;4840744;29;20189;-63
2023/01/18 10:34:48;;;;;;;83.55;40.92;;;;;;;17.08;32.56;99344.00;4524693;29;10000053;-62
2023/01/18 10:37:47;;;;;;;85.05;39.85;;;;;;;17.05;32.72;99347.13;4861905;29;20053;-62
2023/01/18 10:40:30;;;;;;;72.43;38.27;;;;;;;16.97;34.23;99338.56;4859848;29;20824;-62
2023/01/18 10:43:20;;;;;;;80.15;36.10;;;;;;;16.95;32.31;99338.75;4869587;29;20056;-62
2023/01/18 10:46:09;;;;;;;67.55;35.38;;;;;;;16.85;31.95;99329.59;4850149;29;20053;-62
2023/01/18 10:49:01;;;;;;;55.03;32.35;;;;;;;16.94;33.00;99328.28;4847527;29;20136;-63
2023/01/18 10:51:45;;;;;;;67.05;31.40;;;;;;;16.94;32.14;99318.41;4855646;29;20069;-61
2023/01/18 10:54:34;;;;;;;50.63;28.98;;;;;;;16.81;29.39;99323.88;4870546;29;20049;-64
2023/01/18 10:57:24;;;;;;;62.50;29.13;;;;;;;16.74;31.09;99316.91;4865915;29;20570;-62
2023/01/18 11:00:29;;;;;;;56.13;29.50;;;;;;;16.74;29.39;99315.06;4864843;29;20636;-61
2023/01/18 11:03:14;;;;;;;56.53;28.08;;;;;;;16.65;30.41;99313.69;4852211;29;20562;-63
2023/01/18 11:06:15;;;;;;;68.53;28.70;;;;;;;16.61;29.51;99307.94;4865229;29;20129;-61
2023/01/18 11:09:04;;;;;;;58.08;29.67;;;;;;;16.56;31.78;99304.25;4869587;29;20557;-63
2023/01/18 11:14:54;;;;;;;59.40;30.23;;;;;;;16.38;32.20;99301.47;4871762;29;20139;-65
2023/01/18 11:17:45;;;;;;;55.40;29.48;;;;;;;16.33;32.21;99299.44;4871949;29;20378;-61
2023/01/18 11:20:49;;;;;;;54.75;30.15;;;;;;;16.30;33.09;99293.72;4867369;29;20072;-61
2023/01/18 11:23:40;;;;;;;64.40;30.45;;;;;;;16.24;32.72;99290.06;4853213;29;20140;-65
2023/01/18 11:26:35;;;;;;;60.63;30.88;;;;;;;16.11;34.92;99280.25;4839700;29;20852;-65
2023/01/18 11:29:14;;;;;;;60.10;30.05;;;;;;;15.99;33.24;99273.94;4853628;29;20436;-63
2023/01/18 11:32:13;;;;;;;53.65;29.17;;;;;;;15.94;34.24;99267.59;4839215;29;20057;-64
2023/01/18 11:34:51;;;;;;;54.80;29.58;;;;;;;15.87;34.52;99275.66;4852093;29;20064;-65
2023/01/18 11:37:48;;;;;;;64.28;30.55;;;;;;;15.80;35.66;99266.84;4839941;29;20683;-61
2023/01/18 11:40:27;;;;;;;53.60;29.05;;;;;;;15.75;34.82;99257.84;4845754;29;20045;-63
2023/01/18 11:43:32;;;;;;;49.38;27.98;;;;;;;15.65;37.22;99267.13;4854972;29;20813;-64
2023/01/18 11:47:02;;;;;;;59.35;29.30;;;;;;;15.51;39.24;99267.38;4840599;29;20136;-64
2023/01/18 11:50:19;;;;;;;63.28;29.85;;;;;;;15.41;44.62;99269.63;4811266;29;20065;-63
2023/01/18 11:53:27;;;;;;;57.22;30.00;;;;;;;15.33;40.20;99272.50;4850697;29;20053;-61
2023/01/18 11:56:11;;;;;;;62.85;30.45;;;;;;;15.23;42.72;99267.59;4851466;29;20045;-63
2023/01/18 11:59:09;;;;;;;62.53;32.05;;;;;;;15.17;42.13;99268.47;4831383;29;20058;-62
2023/01/18 12:02:23;;;;;;;57.30;29.92;;;;;;;15.06;43.24;99269.06;4816590;29;20054;-63
2023/01/18 12:05:30;;;;;;;63.00;29.23;;;;;;;15.00;42.45;99268.03;4819131;29;20051;-62
2023/01/18 12:08:30;;;;;;;64.82;29.55;;;;;;;14.84;42.18;99271.97;4837165;29;20121;-64
2023/01/18 12:11:39;;;;;;;58.13;28.05;;;;;;;14.76;42.48;99279.34;4843458;29;20076;-60
2023/01/18 12:14:57;;;;;;;61.67;29.45;;;;;;;14.67;41.99;99296.56;4850922;29;20084;-61
2023/01/18 12:18:26;;;;;;;60.08;30.35;;;;;;;14.63;42.44;99296.16;4840889;29;20057;-63
2023/01/18 12:21:19;;;;;;;65.15;31.13;;;;;;;14.53;43.63;99300.25;4822101;29;20042;-65
2023/01/18 12:24:29;;;;;;;58.88;32.65;;;;;;;14.41;43.55;99300.03;4832258;29;20138;-65
2023/01/18 12:27:30;;;;;;;63.28;32.25;;;;;;;14.32;43.55;99295.88;4846821;29;20133;-64
2023/01/18 12:30:18;;;;;;;78.70;31.77;;;;;;;14.38;44.67;99297.78;4830369;29;20057;-64
2023/01/18 12:33:13;;;;;;;82.13;33.60;;;;;;;14.12;45.11;99298.47;4817530;29;20520;-63
2023/01/18 12:36:52;;;;;;;77.13;32.28;;;;;;;14.08;43.27;99297.25;4847793;29;20053;-64
2023/01/18 12:40:03;;;;;;;76.35;33.95;;;;;;;13.93;44.44;99292.09;4843811;29;20050;-64
2023/01/18 12:43:11;;;;;;;82.28;32.90;;;;;;;13.88;45.11;99301.69;4850389;29;20069;-62
2023/01/18 12:45:56;;;;;;;82.07;33.88;;;;;;;13.64;44.28;99304.84;4851702;29;20071;-64
2023/01/18 12:49:20;;;;;;;71.53;34.35;;;;;;;13.70;45.00;99294.25;4846371;29;20775;-62
2023/01/18 12:52:20;;;;;;;75.00;34.25;;;;;;;13.80;45.86;99294.72;4849666;29;20045;-65
2023/01/18 12:55:17;;;;;;;73.88;33.92;;;;;;;13.80;46.32;99304.53;4851350;29;20068;-64
2023/01/18 12:58:08;;;;;;;76.95;34.85;;;;;;;13.81;46.38;99312.28;4509346;29;10000319;-62
2023/01/18 13:00:58;;;;;;;68.93;34.38;;;;;;;13.88;47.59;99317.66;4848382;29;20068;-63
2023/01/18 13:03:53;;;;;;;91.07;37.10;;;;;;;13.99;49.18;99321.59;4848510;29;20042;-62
2023/01/18 13:06:38;;;;;;;81.25;36.63;;;;;;;13.75;48.44;99329.06;4847618;29;20382;-62
2023/01/18 13:09:33;;;;;;;84.65;39.10;;;;;;;13.70;47.03;99344.00;4848885;29;20560;-66
2023/01/18 13:12:17;;;;;;;100.32;40.75;;;;;;;13.73;48.65;99354.22;4850286;29;20562;-63
2023/01/18 13:15:21;;;;;;;89.32;42.05;;;;;;;13.69;48.56;99353.00;4853536;29;20068;-62
2023/01/18 13:18:21;;;;;;;95.85;43.20;;;;;;;13.69;48.40;99353.00;4837823;29;20050;-62
2023/01/18 13:21:17;;;;;;;93.03;43.20;;;;;;;13.62;48.52;99346.81;4849750;29;20096;-62
2023/01/18 13:24:16;;;;;;;114.18;52.90;;;;;;;13.73;48.28;99348.91;4851836;29;20050;-63
2023/01/18 13:27:15;;;;;;;109.85;56.72;;;;;;;13.73;48.84;99360.38;4842329;29;20049;-62
2023/01/18 13:30:08;;;;;;;123.03;56.20;;;;;;;13.80;48.55;99371.09;4854245;29;20053;-64
2023/01/18 13:32:58;;;;;;;109.95;51.90;;;;;;;13.89;48.28;99367.25;4853442;29;20813;-62
2023/01/18 13:35:53;;;;;;;118.85;52.58;;;;;;;13.93;48.34;99369.31;4852862;29;20128;-63
2023/01/18 13:38:53;;;;;;;108.60;52.53;;;;;;;13.88;47.54;99362.94;4852934;29;20057;-63
2023/01/18 13:41:35;;;;;;;122.20;55.97;;;;;;;13.92;48.80;99380.16;4853085;29;20100;-62